sensor_id;sensor_type;location;lat;lon;timestamp;P1;durP1;ratioP1;P2;durP2;ratioP2
9208;SDS011;4639;48.862;9.188;2023-02-28T00:00:32;5.07;;;3.00;;
9208;SDS011;4639;48.862;9.188;2023-02-28T00:02:58;3.87;;;2.50;;
9208;SDS011;4639;48.862;9.188;2023-02-28T00:05:24;3.30;;;2.57;;
9208;SDS011;4639;48.862;9.188;2023-02-28T00:07:51;4.23;;;3.03;;
9208;SDS011;4639;48.862;9.188;2023-02-28T00:10:18;4.40;;;2.80;;
9208;SDS011;4639;48.862;9.188;2023-02-28T00:12:45;4.03;;;2.43;;
9208;SDS011;4639;48.862;9.188;2023-02-28T00:15:12;4.30;;;2.87;;
9208;SDS011;4639;48.862;9.188;2023-02-28T00:17:37;3.57;;;2.63;;
9208;SDS011;4639;48.862;9.188;2023-02-28T00:20:04;3.73;;;2.70;;
9208;SDS011;4639;48.862;9.188;2023-02-28T00:22:35;3.23;;;2.57;;
9208;SDS011;4639;48.862;9.188;2023-02-28T00:25:01;5.07;;;3.07;;
9208;SDS011;4639;48.862;9.188;2023-02-28T00:27:27;5.07;;;2.80;;
9208;SDS011;4639;48.862;9.188;2023-02-28T00:29:52;4.03;;;3.17;;
9208;SDS011;4639;48.862;9.188;2023-02-28T00:32:19;4.10;;;3.30;;
9208;SDS011;4639;48.862;9.188;2023-02-28T00:34:44;4.27;;;3.20;;
9208;SDS011;4639;48.862;9.188;2023-02-28T00:37:10;4.07;;;3.00;;
9208;SDS011;4639;48.862;9.188;2023-02-28T00:39:39;4.87;;;3.10;;
9208;SDS011;4639;48.862;9.188;2023-02-28T00:42:05;4.37;;;3.13;;
9208;SDS011;4639;48.862;9.188;2023-02-28T00:44:31;4.83;;;3.10;;
9208;SDS011;4639;48.862;9.188;2023-02-28T00:46:58;4.30;;;3.27;;
9208;SDS011;4639;48.862;9.188;2023-02-28T00:49:24;4.67;;;3.40;;
9208;SDS011;4639;48.862;9.188;2023-02-28T00:51:50;4.83;;;3.37;;
9208;SDS011;4639;48.862;9.188;2023-02-28T00:54:16;6.23;;;3.03;;
9208;SDS011;4639;48.862;9.188;2023-02-28T00:56:42;3.97;;;3.20;;
9208;SDS011;4639;48.862;9.188;2023-02-28T00:59:08;4.77;;;3.13;;
9208;SDS011;4639;48.862;9.188;2023-02-28T01:01:34;4.70;;;3.43;;
9208;SDS011;4639;48.862;9.188;2023-02-28T01:03:59;6.27;;;3.47;;
9208;SDS011;4639;48.862;9.188;2023-02-28T01:06:25;6.03;;;3.43;;
9208;SDS011;4639;48.862;9.188;2023-02-28T01:08:50;4.70;;;3.53;;
9208;SDS011;4639;48.862;9.188;2023-02-28T01:11:16;5.73;;;3.87;;
9208;SDS011;4639;48.862;9.188;2023-02-28T01:13:43;6.03;;;3.80;;
9208;SDS011;4639;48.862;9.188;2023-02-28T01:16:10;5.50;;;3.60;;
9208;SDS011;4639;48.862;9.188;2023-02-28T01:18:35;4.10;;;3.40;;
9208;SDS011;4639;48.862;9.188;2023-02-28T01:21:05;4.77;;;3.23;;
9208;SDS011;4639;48.862;9.188;2023-02-28T01:23:32;4.10;;;3.33;;
9208;SDS011;4639;48.862;9.188;2023-02-28T01:26:03;4.20;;;3.30;;
9208;SDS011;4639;48.862;9.188;2023-02-28T01:28:32;6.40;;;3.70;;
9208;SDS011;4639;48.862;9.188;2023-02-28T01:30:58;6.97;;;4.07;;
9208;SDS011;4639;48.862;9.188;2023-02-28T01:33:24;4.43;;;3.30;;
9208;SDS011;4639;48.862;9.188;2023-02-28T01:35:56;4.33;;;3.40;;
9208;SDS011;4639;48.862;9.188;2023-02-28T01:38:26;4.00;;;3.60;;
9208;SDS011;4639;48.862;9.188;2023-02-28T01:40:52;4.90;;;3.60;;
9208;SDS011;4639;48.862;9.188;2023-02-28T01:43:25;7.30;;;3.77;;
9208;SDS011;4639;48.862;9.188;2023-02-28T01:45:53;6.83;;;3.63;;
9208;SDS011;4639;48.862;9.188;2023-02-28T01:48:21;5.73;;;3.60;;
9208;SDS011;4639;48.862;9.188;2023-02-28T01:51:00;4.23;;;3.50;;
9208;SDS011;4639;48.862;9.188;2023-02-28T01:53:39;5.80;;;3.77;;
9208;SDS011;4639;48.862;9.188;2023-02-28T01:56:09;5.67;;;3.60;;
9208;SDS011;4639;48.862;9.188;2023-02-28T01:58:38;5.33;;;4.17;;
9208;SDS011;4639;48.862;9.188;2023-02-28T02:01:04;4.17;;;3.60;;
9208;SDS011;4639;48.862;9.188;2023-02-28T02:03:30;5.73;;;3.83;;
9208;SDS011;4639;48.862;9.188;2023-02-28T02:05:56;5.20;;;3.93;;
9208;SDS011;4639;48.862;9.188;2023-02-28T02:08:26;5.30;;;4.07;;
9208;SDS011;4639;48.862;9.188;2023-02-28T02:10:57;6.27;;;3.90;;
9208;SDS011;4639;48.862;9.188;2023-02-28T02:13:37;4.73;;;3.93;;
9208;SDS011;4639;48.862;9.188;2023-02-28T02:27:39;4.90;;;3.83;;
9208;SDS011;4639;48.862;9.188;2023-02-28T02:41:34;5.70;;;3.80;;
9208;SDS011;4639;48.862;9.188;2023-02-28T02:46:48;4.33;;;3.80;;
9208;SDS011;4639;48.862;9.188;2023-02-28T02:49:22;3.90;;;3.57;;
9208;SDS011;4639;48.862;9.188;2023-02-28T02:52:02;7.03;;;4.03;;
9208;SDS011;4639;48.862;9.188;2023-02-28T02:54:32;4.80;;;4.20;;
9208;SDS011;4639;48.862;9.188;2023-02-28T02:57:01;7.10;;;3.90;;
9208;SDS011;4639;48.862;9.188;2023-02-28T02:59:30;5.50;;;4.53;;
9208;SDS011;4639;48.862;9.188;2023-02-28T03:01:59;7.53;;;4.30;;
9208;SDS011;4639;48.862;9.188;2023-02-28T03:04:30;6.20;;;4.50;;
9208;SDS011;4639;48.862;9.188;2023-02-28T03:06:59;4.87;;;4.23;;
9208;SDS011;4639;48.862;9.188;2023-02-28T03:09:25;6.97;;;4.60;;
9208;SDS011;4639;48.862;9.188;2023-02-28T03:11:52;4.67;;;4.10;;
9208;SDS011;4639;48.862;9.188;2023-02-28T03:14:24;6.13;;;4.50;;
9208;SDS011;4639;48.862;9.188;2023-02-28T03:17:02;4.90;;;4.40;;
9208;SDS011;4639;48.862;9.188;2023-02-28T03:22:23;4.83;;;4.07;;
9208;SDS011;4639;48.862;9.188;2023-02-28T03:33:59;6.47;;;4.57;;
9208;SDS011;4639;48.862;9.188;2023-02-28T03:36:39;5.33;;;4.33;;
9208;SDS011;4639;48.862;9.188;2023-02-28T03:39:14;8.93;;;4.80;;
9208;SDS011;4639;48.862;9.188;2023-02-28T03:41:56;7.03;;;4.60;;
9208;SDS011;4639;48.862;9.188;2023-02-28T03:44:25;5.47;;;4.73;;
9208;SDS011;4639;48.862;9.188;2023-02-28T03:47:00;6.90;;;4.50;;
9208;SDS011;4639;48.862;9.188;2023-02-28T03:50:25;5.83;;;4.50;;
9208;SDS011;4639;48.862;9.188;2023-02-28T03:52:32;5.83;;;4.40;;
9208;SDS011;4639;48.862;9.188;2023-02-28T03:55:02;5.53;;;4.53;;
9208;SDS011;4639;48.862;9.188;2023-02-28T03:57:47;6.80;;;5.03;;
9208;SDS011;4639;48.862;9.188;2023-02-28T04:00:33;5.67;;;4.63;;
9208;SDS011;4639;48.862;9.188;2023-02-28T04:03:02;5.63;;;4.57;;
9208;SDS011;4639;48.862;9.188;2023-02-28T04:05:28;6.27;;;4.93;;
9208;SDS011;4639;48.862;9.188;2023-02-28T04:08:03;7.33;;;4.67;;
9208;SDS011;4639;48.862;9.188;2023-02-28T04:10:32;5.93;;;4.57;;
9208;SDS011;4639;48.862;9.188;2023-02-28T04:12:58;5.77;;;4.67;;
9208;SDS011;4639;48.862;9.188;2023-02-28T04:15:24;5.80;;;4.50;;
9208;SDS011;4639;48.862;9.188;2023-02-28T04:17:52;6.17;;;5.10;;
9208;SDS011;4639;48.862;9.188;2023-02-28T04:20:17;7.40;;;4.73;;
9208;SDS011;4639;48.862;9.188;2023-02-28T04:22:44;6.43;;;5.03;;
9208;SDS011;4639;48.862;9.188;2023-02-28T04:25:10;6.30;;;4.70;;
9208;SDS011;4639;48.862;9.188;2023-02-28T04:27:35;5.93;;;5.00;;
9208;SDS011;4639;48.862;9.188;2023-02-28T04:30:01;6.87;;;4.83;;
9208;SDS011;4639;48.862;9.188;2023-02-28T04:32:26;7.63;;;4.90;;
9208;SDS011;4639;48.862;9.188;2023-02-28T04:34:52;6.47;;;4.63;;
9208;SDS011;4639;48.862;9.188;2023-02-28T04:37:18;5.23;;;4.53;;
9208;SDS011;4639;48.862;9.188;2023-02-28T04:39:43;7.47;;;5.30;;
9208;SDS011;4639;48.862;9.188;2023-02-28T04:42:09;6.13;;;5.30;;
9208;SDS011;4639;48.862;9.188;2023-02-28T04:44:35;8.93;;;4.90;;
9208;SDS011;4639;48.862;9.188;2023-02-28T04:47:01;6.03;;;5.17;;
9208;SDS011;4639;48.862;9.188;2023-02-28T04:49:26;8.13;;;5.40;;
9208;SDS011;4639;48.862;9.188;2023-02-28T04:51:52;6.40;;;5.10;;
9208;SDS011;4639;48.862;9.188;2023-02-28T04:54:18;6.95;;;5.03;;
9208;SDS011;4639;48.862;9.188;2023-02-28T04:56:43;7.43;;;5.17;;
9208;SDS011;4639;48.862;9.188;2023-02-28T04:59:09;6.90;;;5.00;;
9208;SDS011;4639;48.862;9.188;2023-02-28T05:01:34;6.97;;;5.20;;
9208;SDS011;4639;48.862;9.188;2023-02-28T05:04:01;5.78;;;4.82;;
9208;SDS011;4639;48.862;9.188;2023-02-28T05:06:29;9.43;;;5.33;;
9208;SDS011;4639;48.862;9.188;2023-02-28T05:08:56;6.83;;;5.10;;
9208;SDS011;4639;48.862;9.188;2023-02-28T05:11:26;6.53;;;5.27;;
9208;SDS011;4639;48.862;9.188;2023-02-28T05:13:54;7.03;;;5.60;;
9208;SDS011;4639;48.862;9.188;2023-02-28T05:16:20;6.30;;;5.33;;
9208;SDS011;4639;48.862;9.188;2023-02-28T05:18:46;8.40;;;5.77;;
9208;SDS011;4639;48.862;9.188;2023-02-28T05:21:17;6.70;;;5.27;;
9208;SDS011;4639;48.862;9.188;2023-02-28T05:23:49;9.47;;;5.90;;
9208;SDS011;4639;48.862;9.188;2023-02-28T05:26:14;6.07;;;5.37;;
9208;SDS011;4639;48.862;9.188;2023-02-28T05:28:40;7.37;;;5.60;;
9208;SDS011;4639;48.862;9.188;2023-02-28T05:31:06;6.80;;;5.90;;
9208;SDS011;4639;48.862;9.188;2023-02-28T05:33:32;7.43;;;5.97;;
9208;SDS011;4639;48.862;9.188;2023-02-28T05:35:58;9.52;;;6.00;;
9208;SDS011;4639;48.862;9.188;2023-02-28T05:38:23;10.03;;;5.83;;
9208;SDS011;4639;48.862;9.188;2023-02-28T05:40:49;10.57;;;5.90;;
9208;SDS011;4639;48.862;9.188;2023-02-28T05:43:14;7.60;;;5.80;;
9208;SDS011;4639;48.862;9.188;2023-02-28T05:45:40;7.43;;;6.47;;
9208;SDS011;4639;48.862;9.188;2023-02-28T05:48:06;7.53;;;5.53;;
9208;SDS011;4639;48.862;9.188;2023-02-28T05:50:32;8.93;;;6.10;;
9208;SDS011;4639;48.862;9.188;2023-02-28T05:52:58;7.70;;;5.80;;
9208;SDS011;4639;48.862;9.188;2023-02-28T05:55:23;7.67;;;5.80;;
9208;SDS011;4639;48.862;9.188;2023-02-28T05:57:49;8.27;;;6.33;;
9208;SDS011;4639;48.862;9.188;2023-02-28T06:00:15;8.80;;;5.83;;
9208;SDS011;4639;48.862;9.188;2023-02-28T06:02:42;9.97;;;6.33;;
9208;SDS011;4639;48.862;9.188;2023-02-28T06:05:16;9.87;;;6.90;;
9208;SDS011;4639;48.862;9.188;2023-02-28T06:07:42;7.33;;;5.90;;
9208;SDS011;4639;48.862;9.188;2023-02-28T06:10:09;9.10;;;6.20;;
9208;SDS011;4639;48.862;9.188;2023-02-28T06:12:36;10.63;;;6.10;;
9208;SDS011;4639;48.862;9.188;2023-02-28T06:15:03;8.07;;;6.37;;
9208;SDS011;4639;48.862;9.188;2023-02-28T06:17:29;7.57;;;5.90;;
9208;SDS011;4639;48.862;9.188;2023-02-28T06:19:54;9.43;;;6.07;;
9208;SDS011;4639;48.862;9.188;2023-02-28T06:22:20;7.73;;;6.30;;
9208;SDS011;4639;48.862;9.188;2023-02-28T06:24:45;9.00;;;6.73;;
9208;SDS011;4639;48.862;9.188;2023-02-28T06:27:11;8.20;;;6.40;;
9208;SDS011;4639;48.862;9.188;2023-02-28T06:29:36;9.90;;;6.57;;
9208;SDS011;4639;48.862;9.188;2023-02-28T06:32:04;10.43;;;6.33;;
9208;SDS011;4639;48.862;9.188;2023-02-28T06:34:30;9.70;;;6.27;;
9208;SDS011;4639;48.862;9.188;2023-02-28T06:36:56;12.20;;;6.73;;
9208;SDS011;4639;48.862;9.188;2023-02-28T06:39:21;8.50;;;5.77;;
9208;SDS011;4639;48.862;9.188;2023-02-28T06:41:47;9.50;;;6.67;;
9208;SDS011;4639;48.862;9.188;2023-02-28T06:44:14;8.73;;;6.23;;
9208;SDS011;4639;48.862;9.188;2023-02-28T06:46:41;7.73;;;6.87;;
9208;SDS011;4639;48.862;9.188;2023-02-28T06:49:08;8.70;;;6.10;;
9208;SDS011;4639;48.862;9.188;2023-02-28T06:51:35;8.20;;;6.40;;
9208;SDS011;4639;48.862;9.188;2023-02-28T06:54:02;9.97;;;6.87;;
9208;SDS011;4639;48.862;9.188;2023-02-28T06:56:28;10.77;;;7.07;;
9208;SDS011;4639;48.862;9.188;2023-02-28T06:58:54;7.90;;;6.70;;
9208;SDS011;4639;48.862;9.188;2023-02-28T07:01:21;10.20;;;6.57;;
9208;SDS011;4639;48.862;9.188;2023-02-28T07:03:49;17.40;;;7.07;;
9208;SDS011;4639;48.862;9.188;2023-02-28T07:06:17;6.87;;;5.60;;
9208;SDS011;4639;48.862;9.188;2023-02-28T07:08:43;8.27;;;6.10;;
9208;SDS011;4639;48.862;9.188;2023-02-28T07:11:09;8.95;;;6.78;;
9208;SDS011;4639;48.862;9.188;2023-02-28T07:13:35;7.70;;;6.50;;
9208;SDS011;4639;48.862;9.188;2023-02-28T07:16:05;9.33;;;6.87;;
9208;SDS011;4639;48.862;9.188;2023-02-28T07:18:32;9.13;;;6.67;;
9208;SDS011;4639;48.862;9.188;2023-02-28T07:21:01;10.53;;;7.00;;
9208;SDS011;4639;48.862;9.188;2023-02-28T07:23:27;10.00;;;6.57;;
9208;SDS011;4639;48.862;9.188;2023-02-28T07:25:53;8.05;;;6.63;;
9208;SDS011;4639;48.862;9.188;2023-02-28T07:28:18;8.50;;;6.47;;
9208;SDS011;4639;48.862;9.188;2023-02-28T07:30:44;9.30;;;7.10;;
9208;SDS011;4639;48.862;9.188;2023-02-28T07:33:09;6.97;;;6.07;;
9208;SDS011;4639;48.862;9.188;2023-02-28T07:35:35;10.93;;;6.53;;
9208;SDS011;4639;48.862;9.188;2023-02-28T07:38:01;9.37;;;6.73;;
9208;SDS011;4639;48.862;9.188;2023-02-28T07:40:27;9.00;;;6.70;;
9208;SDS011;4639;48.862;9.188;2023-02-28T07:42:53;8.80;;;6.93;;
9208;SDS011;4639;48.862;9.188;2023-02-28T07:45:18;10.47;;;7.40;;
9208;SDS011;4639;48.862;9.188;2023-02-28T07:47:44;8.33;;;6.63;;
9208;SDS011;4639;48.862;9.188;2023-02-28T07:50:11;9.27;;;7.50;;
9208;SDS011;4639;48.862;9.188;2023-02-28T07:52:39;8.63;;;7.10;;
9208;SDS011;4639;48.862;9.188;2023-02-28T07:55:06;10.80;;;7.37;;
9208;SDS011;4639;48.862;9.188;2023-02-28T07:57:34;12.37;;;7.97;;
9208;SDS011;4639;48.862;9.188;2023-02-28T08:00:00;9.40;;;7.07;;
9208;SDS011;4639;48.862;9.188;2023-02-28T08:02:29;9.53;;;7.23;;
9208;SDS011;4639;48.862;9.188;2023-02-28T08:04:54;9.17;;;7.47;;
9208;SDS011;4639;48.862;9.188;2023-02-28T08:07:21;9.90;;;7.60;;
9208;SDS011;4639;48.862;9.188;2023-02-28T08:09:46;9.10;;;7.00;;
9208;SDS011;4639;48.862;9.188;2023-02-28T08:12:12;12.40;;;7.63;;
9208;SDS011;4639;48.862;9.188;2023-02-28T08:14:38;8.37;;;6.63;;
9208;SDS011;4639;48.862;9.188;2023-02-28T08:17:04;8.67;;;6.80;;
9208;SDS011;4639;48.862;9.188;2023-02-28T08:19:30;10.13;;;7.50;;
9208;SDS011;4639;48.862;9.188;2023-02-28T08:21:57;9.57;;;7.70;;
9208;SDS011;4639;48.862;9.188;2023-02-28T08:24:23;10.60;;;7.73;;
9208;SDS011;4639;48.862;9.188;2023-02-28T08:26:48;15.05;;;7.75;;
9208;SDS011;4639;48.862;9.188;2023-02-28T08:29:14;8.63;;;7.30;;
9208;SDS011;4639;48.862;9.188;2023-02-28T08:31:40;9.80;;;7.55;;
9208;SDS011;4639;48.862;9.188;2023-02-28T08:34:06;10.17;;;7.33;;
9208;SDS011;4639;48.862;9.188;2023-02-28T08:36:33;12.15;;;7.50;;
9208;SDS011;4639;48.862;9.188;2023-02-28T08:38:59;10.70;;;7.53;;
9208;SDS011;4639;48.862;9.188;2023-02-28T08:41:25;8.83;;;7.53;;
9208;SDS011;4639;48.862;9.188;2023-02-28T08:43:51;11.20;;;7.30;;
9208;SDS011;4639;48.862;9.188;2023-02-28T08:46:16;9.82;;;7.53;;
9208;SDS011;4639;48.862;9.188;2023-02-28T08:48:42;11.53;;;7.90;;
9208;SDS011;4639;48.862;9.188;2023-02-28T08:51:12;10.27;;;7.50;;
9208;SDS011;4639;48.862;9.188;2023-02-28T08:53:41;11.35;;;7.78;;
9208;SDS011;4639;48.862;9.188;2023-02-28T08:56:08;11.33;;;7.73;;
9208;SDS011;4639;48.862;9.188;2023-02-28T08:58:35;10.40;;;8.00;;
9208;SDS011;4639;48.862;9.188;2023-02-28T09:01:07;12.00;;;7.85;;
9208;SDS011;4639;48.862;9.188;2023-02-28T09:03:37;10.10;;;7.70;;
9208;SDS011;4639;48.862;9.188;2023-02-28T09:06:03;9.87;;;7.93;;
9208;SDS011;4639;48.862;9.188;2023-02-28T09:08:29;12.87;;;8.20;;
9208;SDS011;4639;48.862;9.188;2023-02-28T09:10:56;10.00;;;8.18;;
9208;SDS011;4639;48.862;9.188;2023-02-28T09:13:23;10.40;;;8.10;;
9208;SDS011;4639;48.862;9.188;2023-02-28T09:15:49;10.53;;;7.90;;
9208;SDS011;4639;48.862;9.188;2023-02-28T09:18:15;14.48;;;7.93;;
9208;SDS011;4639;48.862;9.188;2023-02-28T09:20:41;11.83;;;7.90;;
9208;SDS011;4639;48.862;9.188;2023-02-28T09:23:08;13.25;;;8.48;;
9208;SDS011;4639;48.862;9.188;2023-02-28T09:25:35;13.73;;;8.18;;
9208;SDS011;4639;48.862;9.188;2023-02-28T09:28:02;10.43;;;8.40;;
9208;SDS011;4639;48.862;9.188;2023-02-28T09:30:28;10.98;;;8.30;;
9208;SDS011;4639;48.862;9.188;2023-02-28T09:32:54;12.88;;;9.20;;
9208;SDS011;4639;48.862;9.188;2023-02-28T09:35:20;12.43;;;8.23;;
9208;SDS011;4639;48.862;9.188;2023-02-28T09:37:47;9.65;;;8.18;;
9208;SDS011;4639;48.862;9.188;2023-02-28T09:40:17;11.25;;;8.70;;
9208;SDS011;4639;48.862;9.188;2023-02-28T09:42:45;11.18;;;8.23;;
9208;SDS011;4639;48.862;9.188;2023-02-28T09:45:19;12.02;;;8.25;;
9208;SDS011;4639;48.862;9.188;2023-02-28T09:47:58;10.88;;;8.30;;
9208;SDS011;4639;48.862;9.188;2023-02-28T09:52:59;10.15;;;8.30;;
9208;SDS011;4639;48.862;9.188;2023-02-28T09:55:33;12.45;;;8.55;;
9208;SDS011;4639;48.862;9.188;2023-02-28T09:58:08;10.98;;;8.10;;
9208;SDS011;4639;48.862;9.188;2023-02-28T10:01:03;10.55;;;8.13;;
9208;SDS011;4639;48.862;9.188;2023-02-28T10:03:37;13.25;;;9.77;;
9208;SDS011;4639;48.862;9.188;2023-02-28T10:08:40;12.90;;;8.68;;
9208;SDS011;4639;48.862;9.188;2023-02-28T10:11:14;9.18;;;7.60;;
9208;SDS011;4639;48.862;9.188;2023-02-28T10:13:50;10.63;;;8.20;;
9208;SDS011;4639;48.862;9.188;2023-02-28T10:16:40;9.18;;;7.50;;
9208;SDS011;4639;48.862;9.188;2023-02-28T10:22:02;11.93;;;9.05;;
9208;SDS011;4639;48.862;9.188;2023-02-28T10:24:30;11.23;;;8.50;;
9208;SDS011;4639;48.862;9.188;2023-02-28T10:27:01;11.27;;;8.38;;
9208;SDS011;4639;48.862;9.188;2023-02-28T10:29:44;9.70;;;8.18;;
9208;SDS011;4639;48.862;9.188;2023-02-28T10:32:21;10.40;;;8.15;;
9208;SDS011;4639;48.862;9.188;2023-02-28T10:34:52;9.73;;;7.80;;
9208;SDS011;4639;48.862;9.188;2023-02-28T10:37:22;13.15;;;9.05;;
9208;SDS011;4639;48.862;9.188;2023-02-28T10:39:48;12.20;;;9.30;;
9208;SDS011;4639;48.862;9.188;2023-02-28T10:42:21;11.55;;;8.25;;
9208;SDS011;4639;48.862;9.188;2023-02-28T10:45:04;10.73;;;8.32;;
9208;SDS011;4639;48.862;9.188;2023-02-28T10:47:54;11.35;;;9.02;;
9208;SDS011;4639;48.862;9.188;2023-02-28T10:50:44;10.95;;;8.88;;
9208;SDS011;4639;48.862;9.188;2023-02-28T10:56:04;12.63;;;8.73;;
9208;SDS011;4639;48.862;9.188;2023-02-28T11:01:48;11.07;;;8.57;;
9208;SDS011;4639;48.862;9.188;2023-02-28T11:04:31;9.40;;;7.88;;
9208;SDS011;4639;48.862;9.188;2023-02-28T11:07:20;10.52;;;8.00;;
9208;SDS011;4639;48.862;9.188;2023-02-28T11:09:54;10.93;;;8.20;;
9208;SDS011;4639;48.862;9.188;2023-02-28T11:12:39;9.48;;;7.53;;
9208;SDS011;4639;48.862;9.188;2023-02-28T11:15:24;12.13;;;8.30;;
9208;SDS011;4639;48.862;9.188;2023-02-28T11:17:58;9.93;;;7.75;;
9208;SDS011;4639;48.862;9.188;2023-02-28T11:20:28;9.45;;;7.47;;
9208;SDS011;4639;48.862;9.188;2023-02-28T11:22:55;11.18;;;8.25;;
9208;SDS011;4639;48.862;9.188;2023-02-28T11:25:33;10.40;;;7.80;;
9208;SDS011;4639;48.862;9.188;2023-02-28T11:28:02;10.25;;;7.80;;
9208;SDS011;4639;48.862;9.188;2023-02-28T11:30:35;10.40;;;7.75;;
9208;SDS011;4639;48.862;9.188;2023-02-28T11:35:49;9.77;;;8.32;;
9208;SDS011;4639;48.862;9.188;2023-02-28T11:38:16;10.40;;;7.93;;
9208;SDS011;4639;48.862;9.188;2023-02-28T11:43:29;9.52;;;7.63;;
9208;SDS011;4639;48.862;9.188;2023-02-28T11:46:07;9.57;;;8.23;;
9208;SDS011;4639;48.862;9.188;2023-02-28T11:49:10;9.88;;;7.45;;
9208;SDS011;4639;48.862;9.188;2023-02-28T12:05:44;9.80;;;7.95;;
9208;SDS011;4639;48.862;9.188;2023-02-28T12:13:53;8.70;;;7.38;;
9208;SDS011;4639;48.862;9.188;2023-02-28T12:22:21;11.23;;;7.78;;
9208;SDS011;4639;48.862;9.188;2023-02-28T12:27:38;10.23;;;7.13;;
9208;SDS011;4639;48.862;9.188;2023-02-28T12:32:47;9.15;;;7.72;;
9208;SDS011;4639;48.862;9.188;2023-02-28T12:35:19;8.90;;;7.85;;
9208;SDS011;4639;48.862;9.188;2023-02-28T12:37:53;8.65;;;7.18;;
9208;SDS011;4639;48.862;9.188;2023-02-28T12:40:26;8.70;;;7.28;;
9208;SDS011;4639;48.862;9.188;2023-02-28T12:43:13;10.13;;;7.60;;
9208;SDS011;4639;48.862;9.188;2023-02-28T12:48:30;8.98;;;6.68;;
9208;SDS011;4639;48.862;9.188;2023-02-28T12:51:02;9.07;;;7.05;;
9208;SDS011;4639;48.862;9.188;2023-02-28T13:01:59;9.48;;;7.20;;
9208;SDS011;4639;48.862;9.188;2023-02-28T13:07:45;9.65;;;7.25;;
9208;SDS011;4639;48.862;9.188;2023-02-28T13:10:40;8.85;;;7.35;;
9208;SDS011;4639;48.862;9.188;2023-02-28T13:13:12;8.45;;;7.53;;
9208;SDS011;4639;48.862;9.188;2023-02-28T13:15:56;9.88;;;6.82;;
9208;SDS011;4639;48.862;9.188;2023-02-28T13:18:34;8.88;;;6.63;;
9208;SDS011;4639;48.862;9.188;2023-02-28T13:21:03;6.88;;;6.10;;
9208;SDS011;4639;48.862;9.188;2023-02-28T13:23:39;8.70;;;6.88;;
9208;SDS011;4639;48.862;9.188;2023-02-28T13:26:21;9.50;;;7.00;;
9208;SDS011;4639;48.862;9.188;2023-02-28T13:34:31;10.82;;;7.15;;
9208;SDS011;4639;48.862;9.188;2023-02-28T13:39:48;8.70;;;6.88;;
9208;SDS011;4639;48.862;9.188;2023-02-28T13:45:32;8.02;;;6.93;;
9208;SDS011;4639;48.862;9.188;2023-02-28T13:47:45;10.23;;;7.03;;
9208;SDS011;4639;48.862;9.188;2023-02-28T13:50:37;7.28;;;6.47;;
9208;SDS011;4639;48.862;9.188;2023-02-28T13:56:00;9.50;;;7.55;;
9208;SDS011;4639;48.862;9.188;2023-02-28T14:02:09;8.73;;;7.28;;
9208;SDS011;4639;48.862;9.188;2023-02-28T14:07:18;8.45;;;7.25;;
9208;SDS011;4639;48.862;9.188;2023-02-28T14:09:54;7.88;;;6.95;;
9208;SDS011;4639;48.862;9.188;2023-02-28T14:15:25;10.90;;;7.28;;
9208;SDS011;4639;48.862;9.188;2023-02-28T14:18:01;8.55;;;7.13;;
9208;SDS011;4639;48.862;9.188;2023-02-28T14:20:30;8.60;;;7.57;;
9208;SDS011;4639;48.862;9.188;2023-02-28T14:23:10;8.20;;;7.40;;
9208;SDS011;4639;48.862;9.188;2023-02-28T14:25:47;8.07;;;7.20;;
9208;SDS011;4639;48.862;9.188;2023-02-28T14:31:10;9.55;;;7.20;;
9208;SDS011;4639;48.862;9.188;2023-02-28T14:36:26;9.80;;;7.22;;
9208;SDS011;4639;48.862;9.188;2023-02-28T14:38:57;8.23;;;7.38;;
9208;SDS011;4639;48.862;9.188;2023-02-28T14:41:30;8.68;;;6.53;;
9208;SDS011;4639;48.862;9.188;2023-02-28T14:44:02;11.55;;;7.28;;
9208;SDS011;4639;48.862;9.188;2023-02-28T14:46:39;8.40;;;7.15;;
9208;SDS011;4639;48.862;9.188;2023-02-28T14:49:07;7.80;;;7.00;;
9208;SDS011;4639;48.862;9.188;2023-02-28T14:51:42;7.95;;;7.15;;
9208;SDS011;4639;48.862;9.188;2023-02-28T14:54:12;10.18;;;7.45;;
9208;SDS011;4639;48.862;9.188;2023-02-28T14:56:39;10.40;;;7.95;;
9208;SDS011;4639;48.862;9.188;2023-02-28T14:59:06;8.25;;;7.35;;
9208;SDS011;4639;48.862;9.188;2023-02-28T15:01:51;8.27;;;6.75;;
9208;SDS011;4639;48.862;9.188;2023-02-28T15:04:25;8.25;;;6.90;;
9208;SDS011;4639;48.862;9.188;2023-02-28T15:07:08;9.45;;;7.38;;
9208;SDS011;4639;48.862;9.188;2023-02-28T15:09:35;10.90;;;7.55;;
9208;SDS011;4639;48.862;9.188;2023-02-28T15:12:00;8.23;;;7.43;;
9208;SDS011;4639;48.862;9.188;2023-02-28T15:14:26;8.10;;;7.30;;
9208;SDS011;4639;48.862;9.188;2023-02-28T15:16:56;10.63;;;7.82;;
9208;SDS011;4639;48.862;9.188;2023-02-28T15:19:32;10.85;;;6.97;;
9208;SDS011;4639;48.862;9.188;2023-02-28T15:22:04;9.30;;;7.88;;
9208;SDS011;4639;48.862;9.188;2023-02-28T15:24:37;7.80;;;7.00;;
9208;SDS011;4639;48.862;9.188;2023-02-28T15:27:35;8.73;;;7.30;;
9208;SDS011;4639;48.862;9.188;2023-02-28T15:30:06;7.57;;;6.78;;
9208;SDS011;4639;48.862;9.188;2023-02-28T15:32:37;9.00;;;7.35;;
9208;SDS011;4639;48.862;9.188;2023-02-28T15:38:03;8.55;;;7.65;;
9208;SDS011;4639;48.862;9.188;2023-02-28T15:40:41;8.63;;;6.65;;
9208;SDS011;4639;48.862;9.188;2023-02-28T15:43:28;9.43;;;7.35;;
9208;SDS011;4639;48.862;9.188;2023-02-28T15:45:58;8.75;;;7.28;;
9208;SDS011;4639;48.862;9.188;2023-02-28T15:48:36;8.52;;;7.63;;
9208;SDS011;4639;48.862;9.188;2023-02-28T15:51:09;10.52;;;7.97;;
9208;SDS011;4639;48.862;9.188;2023-02-28T15:53:50;8.70;;;7.78;;
9208;SDS011;4639;48.862;9.188;2023-02-28T15:58:48;8.60;;;7.55;;
9208;SDS011;4639;48.862;9.188;2023-02-28T16:01:18;8.35;;;7.50;;
9208;SDS011;4639;48.862;9.188;2023-02-28T16:03:56;9.32;;;8.05;;
9208;SDS011;4639;48.862;9.188;2023-02-28T16:09:02;9.63;;;8.55;;
9208;SDS011;4639;48.862;9.188;2023-02-28T16:11:28;12.25;;;8.32;;
9208;SDS011;4639;48.862;9.188;2023-02-28T16:13:55;8.38;;;7.45;;
9208;SDS011;4639;48.862;9.188;2023-02-28T16:16:22;9.05;;;7.45;;
9208;SDS011;4639;48.862;9.188;2023-02-28T16:18:49;10.43;;;8.23;;
9208;SDS011;4639;48.862;9.188;2023-02-28T16:21:15;10.93;;;8.40;;
9208;SDS011;4639;48.862;9.188;2023-02-28T16:23:41;10.18;;;8.18;;
9208;SDS011;4639;48.862;9.188;2023-02-28T16:26:07;11.57;;;8.20;;
9208;SDS011;4639;48.862;9.188;2023-02-28T16:28:34;9.05;;;7.35;;
9208;SDS011;4639;48.862;9.188;2023-02-28T16:31:03;9.35;;;7.68;;
9208;SDS011;4639;48.862;9.188;2023-02-28T16:33:31;9.85;;;7.97;;
9208;SDS011;4639;48.862;9.188;2023-02-28T16:35:57;10.20;;;7.80;;
9208;SDS011;4639;48.862;9.188;2023-02-28T16:38:23;8.73;;;7.65;;
9208;SDS011;4639;48.862;9.188;2023-02-28T16:40:50;10.05;;;8.25;;
9208;SDS011;4639;48.862;9.188;2023-02-28T16:43:20;10.43;;;8.57;;
9208;SDS011;4639;48.862;9.188;2023-02-28T16:45:52;10.30;;;8.27;;
9208;SDS011;4639;48.862;9.188;2023-02-28T16:48:23;10.55;;;8.95;;
9208;SDS011;4639;48.862;9.188;2023-02-28T16:50:50;11.65;;;9.40;;
9208;SDS011;4639;48.862;9.188;2023-02-28T16:53:16;11.25;;;9.15;;
9208;SDS011;4639;48.862;9.188;2023-02-28T16:55:41;10.10;;;8.85;;
9208;SDS011;4639;48.862;9.188;2023-02-28T16:58:10;13.07;;;9.77;;
9208;SDS011;4639;48.862;9.188;2023-02-28T17:00:40;16.90;;;9.68;;
9208;SDS011;4639;48.862;9.188;2023-02-28T17:03:09;11.15;;;9.65;;
9208;SDS011;4639;48.862;9.188;2023-02-28T17:05:50;12.07;;;9.55;;
9208;SDS011;4639;48.862;9.188;2023-02-28T17:08:15;13.15;;;9.32;;
9208;SDS011;4639;48.862;9.188;2023-02-28T17:10:41;12.10;;;9.38;;
9208;SDS011;4639;48.862;9.188;2023-02-28T17:13:07;13.05;;;9.48;;
9208;SDS011;4639;48.862;9.188;2023-02-28T17:15:33;11.20;;;9.63;;
9208;SDS011;4639;48.862;9.188;2023-02-28T17:17:59;13.00;;;10.27;;
9208;SDS011;4639;48.862;9.188;2023-02-28T17:20:24;11.60;;;9.32;;
9208;SDS011;4639;48.862;9.188;2023-02-28T17:22:51;14.45;;;10.10;;
9208;SDS011;4639;48.862;9.188;2023-02-28T17:25:18;14.25;;;10.23;;
9208;SDS011;4639;48.862;9.188;2023-02-28T17:27:44;13.95;;;10.57;;
9208;SDS011;4639;48.862;9.188;2023-02-28T17:30:23;15.23;;;10.40;;
9208;SDS011;4639;48.862;9.188;2023-02-28T17:32:52;11.48;;;9.55;;
9208;SDS011;4639;48.862;9.188;2023-02-28T17:35:21;13.73;;;10.18;;
9208;SDS011;4639;48.862;9.188;2023-02-28T17:37:47;14.88;;;10.98;;
9208;SDS011;4639;48.862;9.188;2023-02-28T17:40:17;14.48;;;10.35;;
9208;SDS011;4639;48.862;9.188;2023-02-28T17:42:44;15.90;;;10.65;;
9208;SDS011;4639;48.862;9.188;2023-02-28T17:45:10;13.57;;;10.00;;